createdAt,value
2022-11-15T00:01:10.903Z,24.92
2022-11-15T00:03:37.860Z,24.80
2022-11-15T00:06:05.580Z,24.27
2022-11-15T00:08:33.887Z,23.20
2022-11-15T00:11:02.455Z,23.67
2022-11-15T00:13:30.625Z,24.45
2022-11-15T00:15:59.432Z,25.23
2022-11-15T00:18:26.876Z,24.92
2022-11-15T00:20:53.811Z,25.35
2022-11-15T00:23:20.837Z,24.63
2022-11-15T00:25:47.833Z,25.30
2022-11-15T00:28:14.736Z,24.98
2022-11-15T00:30:41.703Z,25.33
2022-11-15T00:33:10.689Z,27.50
2022-11-15T00:35:37.618Z,24.70
2022-11-15T00:38:04.514Z,25.95
2022-11-15T00:40:31.703Z,26.67
2022-11-15T00:42:58.681Z,26.77
2022-11-15T00:45:26.560Z,27.37
2022-11-15T00:47:53.988Z,27.05
2022-11-15T00:50:20.930Z,28.30
2022-11-15T00:52:47.922Z,27.50
2022-11-15T00:55:19.674Z,28.60
2022-11-15T00:57:47.485Z,28.70
2022-11-15T01:00:15.104Z,27.35
2022-11-15T01:02:42.233Z,27.08
2022-11-15T01:05:09.389Z,28.67
2022-11-15T01:07:36.748Z,30.85
2022-11-15T01:10:04.397Z,29.55
2022-11-15T01:12:31.668Z,29.35
2022-11-15T01:14:58.655Z,29.58
2022-11-15T01:17:25.563Z,31.23
2022-11-15T01:19:52.486Z,31.05
2022-11-15T01:22:19.491Z,31.35
2022-11-15T01:24:46.386Z,26.92
2022-11-15T01:27:13.476Z,29.95
2022-11-15T01:29:40.380Z,30.00
2022-11-15T01:32:07.546Z,29.55
2022-11-15T01:34:34.842Z,30.08
2022-11-15T01:37:02.056Z,31.02
2022-11-15T01:39:29.243Z,31.17
2022-11-15T01:41:56.623Z,30.85
2022-11-15T01:44:32.871Z,29.48
2022-11-15T01:47:02.954Z,32.88
2022-11-15T01:49:33.709Z,34.22
2022-11-15T01:52:03.197Z,31.85
2022-11-15T01:54:30.717Z,33.30
2022-11-15T01:57:04.941Z,34.20
2022-11-15T01:59:32.098Z,34.63
2022-11-15T02:01:59.099Z,34.28
2022-11-15T02:04:27.934Z,36.30
2022-11-15T02:06:54.902Z,36.70
2022-11-15T02:09:21.799Z,32.90
2022-11-15T02:11:49.674Z,34.40
2022-11-15T02:14:20.342Z,33.67
2022-11-15T02:17:19.561Z,34.85
2022-11-15T02:20:28.082Z,35.25
2022-11-15T02:23:16.324Z,33.83
2022-11-15T02:26:10.627Z,34.75
2022-11-15T02:29:11.344Z,36.25
2022-11-15T02:31:46.861Z,32.40
2022-11-15T02:34:29.260Z,33.95
2022-11-15T02:37:16.953Z,34.42
2022-11-15T02:40:00.175Z,33.53
2022-11-15T02:42:50.724Z,31.62
2022-11-15T02:45:29.303Z,32.20
2022-11-15T02:48:00.210Z,34.70
2022-11-15T02:50:30.175Z,33.85
2022-11-15T02:52:57.197Z,35.42
2022-11-15T02:55:39.714Z,34.08
2022-11-15T02:58:34.003Z,32.28
2022-11-15T03:01:24.282Z,32.92
2022-11-15T03:04:09.788Z,32.30
2022-11-15T03:06:59.579Z,32.33
2022-11-15T03:09:45.251Z,33.15
2022-11-15T03:12:34.433Z,30.17
2022-11-15T03:15:30.482Z,33.65
2022-11-15T03:18:05.408Z,30.02
2022-11-15T03:20:34.038Z,32.85
2022-11-15T03:23:15.363Z,30.45
2022-11-15T03:25:49.570Z,30.60
2022-11-15T03:28:26.694Z,29.45
2022-11-15T03:30:56.476Z,30.58
2022-11-15T03:33:23.658Z,30.65
2022-11-15T03:35:52.342Z,30.80
2022-11-15T03:38:27.612Z,30.05
2022-11-15T03:41:01.554Z,31.87
2022-11-15T03:43:36.717Z,29.77
2022-11-15T03:46:12.192Z,28.30
2022-11-15T03:48:44.638Z,29.25
2022-11-15T03:51:12.284Z,30.75
2022-11-15T03:53:39.365Z,31.90
2022-11-15T03:56:06.546Z,30.48
2022-11-15T03:58:33.531Z,29.77
2022-11-15T04:01:00.579Z,30.77
2022-11-15T04:03:27.625Z,34.00
2022-11-15T04:05:54.581Z,32.47
2022-11-15T04:08:21.472Z,32.75
2022-11-15T04:10:50.457Z,31.98
2022-11-15T04:13:17.346Z,32.22
2022-11-15T04:15:44.228Z,30.55
2022-11-15T04:18:11.136Z,31.83
2022-11-15T04:20:56.904Z,31.02
2022-11-15T04:23:43.357Z,32.08
2022-11-15T04:26:13.838Z,31.33
2022-11-15T04:29:00.698Z,32.13
2022-11-15T04:31:28.352Z,31.27
2022-11-15T04:33:55.787Z,30.08
2022-11-15T04:36:41.550Z,28.98
2022-11-15T04:39:08.761Z,29.70
2022-11-15T04:41:35.675Z,28.98
2022-11-15T04:44:02.608Z,34.38
2022-11-15T04:46:29.719Z,32.05
2022-11-15T04:48:59.005Z,34.15
2022-11-15T04:51:26.726Z,32.75
2022-11-15T04:53:53.662Z,33.55
2022-11-15T04:56:20.619Z,29.95
2022-11-15T04:58:50.821Z,32.28
2022-11-15T05:01:17.944Z,29.87
2022-11-15T05:04:04.194Z,29.77
2022-11-15T05:06:31.534Z,30.05
2022-11-15T05:08:58.674Z,29.50
2022-11-15T05:11:25.719Z,29.00
2022-11-15T05:13:52.829Z,30.65
2022-11-15T05:16:19.998Z,29.52
2022-11-15T05:18:46.998Z,31.95
2022-11-15T05:21:15.868Z,32.80
2022-11-15T05:23:43.103Z,30.30
2022-11-15T05:26:10.884Z,31.17
2022-11-15T05:28:38.286Z,32.50
2022-11-15T05:31:11.011Z,33.28
2022-11-15T05:33:40.019Z,34.67
2022-11-15T05:36:21.244Z,35.53
2022-11-15T05:38:50.041Z,31.98
2022-11-15T05:41:20.451Z,32.90
2022-11-15T05:43:47.852Z,34.90
2022-11-15T05:46:15.434Z,37.35
2022-11-15T05:48:47.193Z,35.95
2022-11-15T05:51:16.679Z,36.05
2022-11-15T05:53:44.514Z,37.25
2022-11-15T05:56:11.701Z,37.00
2022-11-15T05:58:39.245Z,36.83
2022-11-15T06:01:06.499Z,38.38
2022-11-15T06:03:33.670Z,37.85
2022-11-15T06:06:00.730Z,40.20
2022-11-15T06:08:28.383Z,37.60
2022-11-15T06:10:55.279Z,38.92
2022-11-15T06:13:22.267Z,40.50
2022-11-15T06:15:49.312Z,36.63
2022-11-15T06:18:16.227Z,37.97
2022-11-15T06:20:43.108Z,41.75
2022-11-15T06:23:10.206Z,41.67
2022-11-15T06:25:37.104Z,42.10
2022-11-15T06:28:04.199Z,42.03
2022-11-15T06:30:31.092Z,42.03
2022-11-15T06:33:02.737Z,41.25
2022-11-15T06:35:30.647Z,43.05
2022-11-15T06:38:02.557Z,44.53
2022-11-15T06:40:29.482Z,45.25
2022-11-15T06:43:03.324Z,44.33
2022-11-15T06:45:30.306Z,44.72
2022-11-15T06:47:57.378Z,43.97
2022-11-15T06:50:24.735Z,46.55
2022-11-15T06:52:51.908Z,44.78
2022-11-15T06:55:18.853Z,39.70
2022-11-15T06:57:53.117Z,42.80
2022-11-15T07:00:21.797Z,42.60
2022-11-15T07:02:49.239Z,43.70
2022-11-15T07:05:16.971Z,44.78
2022-11-15T07:07:43.967Z,43.47
2022-11-15T07:10:11.133Z,41.45
2022-11-15T07:12:38.065Z,42.03
2022-11-15T07:15:05.490Z,42.08
2022-11-15T07:17:32.847Z,40.50
2022-11-15T07:19:59.738Z,40.22
2022-11-15T07:22:26.653Z,40.05
2022-11-15T07:24:53.661Z,39.03
2022-11-15T07:27:20.754Z,40.95
2022-11-15T07:29:48.118Z,40.45
2022-11-15T07:32:15.033Z,39.97
2022-11-15T07:34:41.945Z,40.53
2022-11-15T07:37:09.051Z,39.95
2022-11-15T07:39:36.020Z,38.67
2022-11-15T07:42:21.543Z,40.08
2022-11-15T07:44:48.502Z,39.05
2022-11-15T07:47:15.835Z,37.72
2022-11-15T07:49:42.725Z,37.08
2022-11-15T07:52:09.808Z,37.92
2022-11-15T07:54:36.727Z,34.88
2022-11-15T07:57:07.274Z,38.42
2022-11-15T07:59:36.066Z,37.72
2022-11-15T08:02:03.584Z,34.50
2022-11-15T08:04:30.595Z,36.22
2022-11-15T08:06:58.376Z,38.55
2022-11-15T08:09:25.357Z,37.22
2022-11-15T08:11:52.355Z,37.45
2022-11-15T08:14:19.262Z,35.65
2022-11-15T08:16:46.145Z,37.78
2022-11-15T08:19:13.106Z,34.13
2022-11-15T08:21:39.986Z,34.65
2022-11-15T08:24:09.438Z,35.17
2022-11-15T08:26:36.403Z,33.88
2022-11-15T08:29:03.408Z,38.75
2022-11-15T08:31:30.346Z,37.45
2022-11-15T08:33:57.390Z,39.75
2022-11-15T08:36:24.337Z,36.85
2022-11-15T08:38:51.248Z,37.55
2022-11-15T08:41:28.828Z,38.95
2022-11-15T08:43:55.743Z,39.00
2022-11-15T08:46:23.034Z,37.13
2022-11-15T08:48:49.998Z,39.70
2022-11-15T08:51:17.231Z,40.00
2022-11-15T08:53:44.276Z,39.33
2022-11-15T08:56:13.002Z,38.47
2022-11-15T08:58:40.588Z,35.42
2022-11-15T09:01:07.781Z,34.63
2022-11-15T09:03:34.758Z,30.62
2022-11-15T09:06:02.428Z,36.47
2022-11-15T09:08:48.791Z,36.83
2022-11-15T09:11:17.635Z,33.28
2022-11-15T09:13:44.561Z,30.37
2022-11-15T09:16:13.340Z,27.98
2022-11-15T09:18:40.297Z,30.25
2022-11-15T09:21:07.252Z,30.67
2022-11-15T09:23:34.634Z,28.15
2022-11-15T09:26:03.903Z,32.20
2022-11-15T09:28:32.452Z,33.85
2022-11-15T09:31:04.472Z,34.08
2022-11-15T09:33:31.694Z,33.35
2022-11-15T09:36:10.120Z,33.28
2022-11-15T09:38:37.570Z,33.22
2022-11-15T09:41:13.586Z,34.00
2022-11-15T09:43:58.282Z,32.03
2022-11-15T09:46:37.755Z,31.95
2022-11-15T09:49:05.787Z,32.45
2022-11-15T09:51:36.055Z,32.72
2022-11-15T09:54:51.757Z,32.17
2022-11-15T09:57:18.094Z,32.63
2022-11-15T10:00:23.833Z,33.17
2022-11-15T10:03:09.049Z,33.50
2022-11-15T10:05:48.056Z,35.63
2022-11-15T10:08:40.831Z,33.80
2022-11-15T10:14:02.578Z,33.75
2022-11-15T10:16:29.451Z,33.20
2022-11-15T10:19:31.016Z,35.20
2022-11-15T10:22:33.769Z,37.70
2022-11-15T10:25:23.252Z,32.55
2022-11-15T10:28:08.077Z,34.55
2022-11-15T10:30:38.508Z,33.17
2022-11-15T10:33:30.340Z,31.27
2022-11-15T10:36:20.875Z,28.87
2022-11-15T10:38:50.867Z,29.37
2022-11-15T10:41:18.736Z,30.33
2022-11-15T10:43:46.955Z,29.10
2022-11-15T10:46:45.601Z,30.95
2022-11-15T10:49:21.645Z,32.05
2022-11-15T10:51:57.893Z,30.95
2022-11-15T10:54:46.290Z,31.12
2022-11-15T10:57:23.364Z,33.50
2022-11-15T10:59:54.477Z,31.02
2022-11-15T11:02:35.589Z,32.13
2022-11-15T11:05:04.658Z,28.60
2022-11-15T11:07:35.175Z,31.73
2022-11-15T11:10:13.304Z,32.40
2022-11-15T11:12:49.890Z,34.03
2022-11-15T11:15:18.247Z,30.10
2022-11-15T11:18:10.383Z,30.42
2022-11-15T11:20:46.099Z,29.30
2022-11-15T11:23:39.483Z,32.80
2022-11-15T11:26:12.556Z,33.17
2022-11-15T11:28:54.572Z,33.00
2022-11-15T11:32:01.169Z,28.38
2022-11-15T11:34:28.015Z,29.48
2022-11-15T11:37:21.871Z,30.70
2022-11-15T11:40:01.570Z,28.65
2022-11-15T11:42:39.968Z,25.50
2022-11-15T11:45:37.008Z,26.08
2022-11-15T11:48:27.020Z,23.83
2022-11-15T11:50:57.749Z,24.63
2022-11-15T11:53:41.079Z,22.23
2022-11-15T11:56:24.583Z,19.90
2022-11-15T11:58:54.061Z,19.20
2022-11-15T12:01:31.443Z,17.48
2022-11-15T12:04:21.950Z,15.95
2022-11-15T12:07:02.536Z,15.18
2022-11-15T12:09:36.814Z,12.73
2022-11-15T12:12:12.324Z,10.30
2022-11-15T12:15:10.572Z,8.40
2022-11-15T12:17:39.614Z,8.15
2022-11-15T12:20:20.043Z,9.18
2022-11-15T12:23:14.946Z,10.10
2022-11-15T12:26:19.040Z,11.85
2022-11-15T12:29:06.445Z,10.98
2022-11-15T12:31:42.568Z,9.57
2022-11-15T12:34:21.498Z,8.05
2022-11-15T12:36:49.995Z,8.55
2022-11-15T12:39:18.115Z,7.47
2022-11-15T12:41:55.561Z,5.68
2022-11-15T12:44:48.749Z,5.68
2022-11-15T12:47:27.127Z,4.45
2022-11-15T12:49:54.503Z,4.28
2022-11-15T12:52:21.826Z,4.40
2022-11-15T12:54:55.430Z,3.62
2022-11-15T12:57:32.024Z,5.55
2022-11-15T13:00:07.740Z,4.95
2022-11-15T13:02:40.992Z,4.32
2022-11-15T13:05:17.345Z,4.82
2022-11-15T13:07:44.246Z,4.25
2022-11-15T13:10:11.220Z,4.72
2022-11-15T13:12:47.174Z,4.07
2022-11-15T13:15:15.818Z,3.53
2022-11-15T13:17:56.782Z,3.97
2022-11-15T13:20:32.134Z,3.83
2022-11-15T13:23:10.469Z,5.05
2022-11-15T13:25:40.340Z,4.35
2022-11-15T13:28:16.410Z,4.18
2022-11-15T13:30:58.767Z,5.05
2022-11-15T13:33:37.573Z,3.95
2022-11-15T13:36:15.187Z,4.82
2022-11-15T13:38:43.071Z,4.57
2022-11-15T13:41:21.352Z,4.60
2022-11-15T13:43:52.260Z,6.72
2022-11-15T13:46:29.014Z,5.75
2022-11-15T13:49:00.612Z,5.72
2022-11-15T13:51:45.919Z,5.53
2022-11-15T13:54:58.883Z,5.75
2022-11-15T13:57:28.914Z,6.43
2022-11-15T14:00:17.804Z,4.72
2022-11-15T14:02:44.762Z,5.75
2022-11-15T14:05:24.414Z,6.25
2022-11-15T14:07:57.117Z,5.62
2022-11-15T14:10:32.125Z,7.53
2022-11-15T14:12:59.935Z,6.97
2022-11-15T14:15:31.663Z,7.50
2022-11-15T14:17:58.868Z,6.87
2022-11-15T14:20:35.083Z,6.03
2022-11-15T14:23:24.747Z,7.07
2022-11-15T14:26:00.192Z,6.32
2022-11-15T14:28:27.152Z,6.97
2022-11-15T14:30:56.750Z,6.25
2022-11-15T14:33:38.124Z,6.78
2022-11-15T14:36:12.526Z,6.85
2022-11-15T14:38:39.916Z,7.05
2022-11-15T14:41:07.248Z,6.50
2022-11-15T14:43:34.289Z,4.53
2022-11-15T14:46:01.549Z,5.85
2022-11-15T14:48:28.558Z,5.78
2022-11-15T14:50:55.526Z,5.18
2022-11-15T14:53:23.206Z,6.10
2022-11-15T14:55:50.408Z,5.82
2022-11-15T14:58:17.313Z,6.25
2022-11-15T15:00:44.248Z,4.75
2022-11-15T15:03:11.489Z,6.37
2022-11-15T15:05:44.819Z,4.97
2022-11-15T15:08:12.886Z,4.32
2022-11-15T15:10:45.460Z,4.35
2022-11-15T15:13:23.957Z,5.55
2022-11-15T15:15:52.544Z,5.60
2022-11-15T15:18:21.062Z,3.65
2022-11-15T15:20:55.803Z,3.80
2022-11-15T15:23:24.052Z,3.87
2022-11-15T15:25:51.051Z,4.40
2022-11-15T15:28:18.041Z,3.67
2022-11-15T15:30:45.141Z,4.65
2022-11-15T15:33:12.081Z,4.62
2022-11-15T15:35:39.177Z,3.90
2022-11-15T15:38:06.969Z,4.50
2022-11-15T15:40:34.559Z,4.20
2022-11-15T15:43:01.671Z,2.97
2022-11-15T15:45:29.369Z,4.78
2022-11-15T15:47:56.753Z,3.42
2022-11-15T15:50:25.119Z,3.60
2022-11-15T15:52:54.053Z,3.12
2022-11-15T15:55:21.740Z,3.55
2022-11-15T15:57:49.358Z,2.70
2022-11-15T16:00:17.534Z,2.90
2022-11-15T16:02:44.619Z,3.40
2022-11-15T16:05:12.158Z,2.40
2022-11-15T16:07:40.739Z,2.47
2022-11-15T16:10:29.540Z,2.08
2022-11-15T16:12:57.779Z,2.95
2022-11-15T16:15:28.220Z,2.28
2022-11-15T16:17:57.396Z,1.90
2022-11-15T16:20:50.548Z,2.05
2022-11-15T16:23:21.060Z,2.40
2022-11-15T16:25:54.024Z,1.83
2022-11-15T16:28:25.059Z,1.27
2022-11-15T16:31:08.819Z,3.12
2022-11-15T16:33:36.317Z,3.12
2022-11-15T16:36:04.958Z,2.30
2022-11-15T16:38:32.549Z,2.10
2022-11-15T16:41:00.201Z,2.70
2022-11-15T16:43:27.232Z,2.75
2022-11-15T16:45:55.352Z,1.73
2022-11-15T16:48:27.930Z,2.80
2022-11-15T16:50:57.493Z,2.05
2022-11-15T16:53:25.594Z,2.05
2022-11-15T16:55:52.542Z,1.70
2022-11-15T16:58:19.459Z,1.90
2022-11-15T17:00:50.281Z,2.15
2022-11-15T17:03:17.251Z,2.95
2022-11-15T17:05:44.151Z,2.92
2022-11-15T17:08:11.133Z,2.65
2022-11-15T17:10:44.243Z,2.90
2022-11-15T17:13:13.856Z,2.30
2022-11-15T17:15:40.782Z,2.67
2022-11-15T17:18:10.749Z,2.08
2022-11-15T17:20:37.648Z,2.40
2022-11-15T17:23:04.554Z,2.47
2022-11-15T17:25:31.464Z,1.67
2022-11-15T17:27:58.351Z,1.90
2022-11-15T17:30:25.307Z,2.12
2022-11-15T17:32:52.574Z,2.03
2022-11-15T17:35:19.452Z,3.17
2022-11-15T17:37:48.349Z,2.78
2022-11-15T17:40:15.621Z,2.30
2022-11-15T17:42:42.557Z,2.80
2022-11-15T17:45:11.516Z,2.47
2022-11-15T17:47:38.567Z,2.55
2022-11-15T17:50:05.759Z,2.17
2022-11-15T17:52:32.632Z,2.22
2022-11-15T17:54:59.551Z,1.87
2022-11-15T17:57:26.496Z,2.42
2022-11-15T17:59:53.486Z,2.40
2022-11-15T18:02:20.426Z,1.77
2022-11-15T18:04:47.323Z,2.33
2022-11-15T18:07:14.550Z,2.10
2022-11-15T18:09:44.430Z,1.77
2022-11-15T18:12:12.295Z,1.98
2022-11-15T18:14:39.657Z,2.08
2022-11-15T18:17:06.717Z,2.42
2022-11-15T18:19:33.773Z,2.10
2022-11-15T18:22:01.795Z,2.30
2022-11-15T18:24:31.125Z,1.95
2022-11-15T18:26:59.800Z,2.03
2022-11-15T18:29:27.009Z,1.45
2022-11-15T18:31:58.872Z,1.23
2022-11-15T18:34:32.143Z,1.40
2022-11-15T18:37:00.553Z,2.00
2022-11-15T18:39:27.545Z,1.67
2022-11-15T18:41:54.550Z,1.30
2022-11-15T18:44:21.503Z,1.42
2022-11-15T18:46:48.550Z,2.22
2022-11-15T18:49:20.461Z,1.62
2022-11-15T18:51:47.772Z,1.95
2022-11-15T18:54:16.222Z,2.25
2022-11-15T18:56:44.739Z,1.80
2022-11-15T18:59:11.730Z,2.00
2022-11-15T19:01:40.730Z,1.20
2022-11-15T19:04:11.613Z,1.67
2022-11-15T19:06:44.339Z,1.98
2022-11-15T19:09:15.276Z,1.35
2022-11-15T19:11:43.342Z,1.45
2022-11-15T19:14:15.747Z,1.30
2022-11-15T19:16:52.169Z,1.48
2022-11-15T19:19:21.889Z,1.27
2022-11-15T19:21:49.180Z,1.30
2022-11-15T19:24:16.238Z,1.50
2022-11-15T19:26:44.874Z,1.40
2022-11-15T19:29:12.123Z,1.40
2022-11-15T19:31:39.276Z,0.88
2022-11-15T19:34:07.766Z,1.10
2022-11-15T19:36:40.059Z,1.15
2022-11-15T19:39:10.171Z,0.85
2022-11-15T19:41:38.721Z,1.17
2022-11-15T19:44:06.626Z,2.12
2022-11-15T19:46:34.029Z,0.93
2022-11-15T19:49:01.244Z,1.02
2022-11-15T19:51:30.918Z,1.08
2022-11-15T19:54:01.674Z,1.25
2022-11-15T19:56:28.696Z,0.80
2022-11-15T19:58:56.581Z,1.55
2022-11-15T20:01:32.113Z,1.10
2022-11-15T20:04:00.349Z,1.52
2022-11-15T20:06:31.489Z,0.90
2022-11-15T20:08:59.119Z,1.20
2022-11-15T20:11:26.807Z,1.00
2022-11-15T20:13:58.751Z,1.08
2022-11-15T20:16:25.953Z,1.00
2022-11-15T20:18:53.436Z,1.00
2022-11-15T20:21:21.518Z,1.90
2022-11-15T20:23:50.984Z,1.30
2022-11-15T20:26:19.680Z,2.03
2022-11-15T20:28:48.160Z,1.20
2022-11-15T20:31:16.431Z,1.20
2022-11-15T20:33:43.431Z,1.17
2022-11-15T20:36:12.977Z,1.20
2022-11-15T20:38:40.436Z,1.37
2022-11-15T20:41:07.866Z,1.37
2022-11-15T20:43:34.889Z,1.35
2022-11-15T20:46:01.834Z,1.70
2022-11-15T20:48:28.778Z,2.00
2022-11-15T20:51:16.495Z,1.50
2022-11-15T20:53:45.566Z,2.10
2022-11-15T20:56:15.398Z,1.90
2022-11-15T20:58:43.762Z,2.12
2022-11-15T21:01:13.803Z,1.55
2022-11-15T21:03:41.094Z,1.50
2022-11-15T21:06:08.333Z,1.87
2022-11-15T21:08:53.960Z,2.08
2022-11-15T21:11:39.833Z,1.80
2022-11-15T21:14:09.498Z,1.60
2022-11-15T21:16:37.478Z,1.70
2022-11-15T21:19:05.690Z,2.08
2022-11-15T21:21:32.906Z,2.00
2022-11-15T21:23:59.995Z,2.15
2022-11-15T21:26:27.043Z,2.20
2022-11-15T21:28:53.927Z,1.60
2022-11-15T21:31:20.883Z,1.83
2022-11-15T21:33:47.814Z,2.45
2022-11-15T21:36:15.208Z,3.45
2022-11-15T21:38:42.116Z,2.90
2022-11-15T21:41:09.156Z,2.10
2022-11-15T21:43:36.220Z,2.20
2022-11-15T21:46:05.775Z,3.33
2022-11-15T21:48:35.285Z,2.80
2022-11-15T21:51:05.041Z,2.67
2022-11-15T21:53:32.572Z,1.90
2022-11-15T21:56:01.103Z,2.58
2022-11-15T21:58:28.762Z,3.72
2022-11-15T22:01:15.495Z,2.72
2022-11-15T22:03:43.399Z,2.00
2022-11-15T22:06:14.493Z,2.30
2022-11-15T22:08:46.097Z,2.22
2022-11-15T22:11:14.184Z,2.05
2022-11-15T22:13:41.596Z,2.37
2022-11-15T22:16:09.676Z,1.98
2022-11-15T22:18:37.910Z,2.47
2022-11-15T22:21:11.696Z,2.15
2022-11-15T22:23:39.045Z,2.83
2022-11-15T22:26:07.107Z,2.53
2022-11-15T22:28:34.621Z,2.67
2022-11-15T22:31:01.783Z,2.17
2022-11-15T22:33:30.780Z,2.80
2022-11-15T22:35:58.402Z,3.80
2022-11-15T22:38:26.369Z,3.22
2022-11-15T22:40:54.003Z,2.72
2022-11-15T22:43:22.690Z,2.60
2022-11-15T22:45:49.644Z,3.20
2022-11-15T22:48:17.079Z,4.00
2022-11-15T22:50:44.592Z,4.82
2022-11-15T22:53:11.933Z,3.70
2022-11-15T22:55:39.927Z,3.03
2022-11-15T22:58:08.912Z,3.08
2022-11-15T23:00:36.513Z,3.55
2022-11-15T23:03:03.699Z,5.53
2022-11-15T23:05:30.698Z,4.60
2022-11-15T23:07:58.025Z,4.53
2022-11-15T23:10:43.456Z,4.65
2022-11-15T23:13:16.243Z,4.60
2022-11-15T23:16:04.125Z,3.58
2022-11-15T23:18:35.758Z,3.35
2022-11-15T23:21:14.121Z,4.00
2022-11-15T23:23:41.157Z,3.60
2022-11-15T23:26:09.140Z,3.97
2022-11-15T23:28:36.356Z,5.35
2022-11-15T23:31:26.264Z,4.15
2022-11-15T23:33:59.397Z,4.62
2022-11-15T23:36:28.566Z,4.72
2022-11-15T23:38:56.634Z,9.15
2022-11-15T23:41:24.273Z,7.60
2022-11-15T23:43:51.774Z,8.20
2022-11-15T23:46:19.196Z,8.32
2022-11-15T23:48:46.279Z,5.53
2022-11-15T23:51:13.271Z,4.95
2022-11-15T23:53:40.308Z,4.87
2022-11-15T23:56:12.344Z,5.68
2022-11-15T23:58:39.844Z,4.57
